Sparta, TN

8:43 AM CST on January 20, 2017 (GMT -0600)
Bakers Crossroads | | Change Station

Elev 1027 ft 36.01 °N, 85.56 °W | Updated 21 seconds ago

Overcast
Overcast
58.8 °F
Feels Like 58.8 °F
N
1.1
Wind Variable Wind from SSE
Gusts 2.5 mph

Today
High -- | Low -- °F
--% Chance of Precip.
Yesterday
High -- | Low -- °F
Precip. -- in
Pressure 29.84 in
Visibility 10.0 miles
Clouds Few 1300 ft
Mostly Cloudy 3100 ft
Overcast 4900 ft
Dew Point 57 °F
Humidity 93%
Rainfall 0.25 in
Snow Depth Not available.
6:50 AM 4:56 PM
Last Quarter, 44% visible
SPECI KCSV 201430Z AUTO 21005KT 10SM FEW013 BKN031 OVC049 13/12 A2984 RMK AO2 T01330117
Pressure 29.84 in
Visibility 10.0 miles
Clouds Few 1300 ft
Mostly Cloudy 3100 ft
Overcast 4900 ft
Dew Point 57 °F
Humidity 93%
Rainfall 0.25 in
Snow Depth Not available.
6:50 AM 4:56 PM
Last Quarter, 44% visible
SPECI KCSV 201430Z AUTO 21005KT 10SM FEW013 BKN031 OVC049 13/12 A2984 RMK AO2 T01330117

Get Your Daily Forecast Email!

Thanks for signing up!

Be on the lookout for a verification email in your inbox.

You'll start receiving the daily forecast at 8 AM.

×

10-Day Weather Forecast

Almanac

Astronomy

Jan. 20, 2017 Rise Set
Actual Time
Civil Twilight
Nautical Twilight
Astronomical Twilight
Moon
Length of Visible Light
Length of Day
Tomorrow will be .
, % of the Moon is Illuminated

Today's Extremes

State Highs State Lows

Community

WunderPhotos

Upload Photos

1,962,540 photos uploaded!

WunderBlog® & News

Nearby

Air Quality

  Air Quality AQ Index Pollutant
Not available.

Snow Depth

Station Depth Elevation

Earthquake Activity

City Distance Mag. Time & Date
Minimum magnitude displayed is 2.5.

Coastal Water Temperatures

Place Temperature

Stations

Nearby Weather Stations

Station Location Temp. Windchill Dew Point Humidity Wind Precip. Elev Updated Type
                   

Watches & Warnings

There are currently no watches in effect.